Skip Navigation Links
NOAA logo - Click to go to the NOAA homepage
NOAA's National Weather Service
Alaska Aviation Weather Unit
  NWS logo - Click to go to the NWS homepage
Left Navbar Graphic     00 AKDT = 08 GMT

   
NOAA is celebrating 200 years of science, service, and stewardship. Visit the NOAA 200th celebration Web site to learn more.
USA.gov is the U.S. Government's official Web portal to all Federal, state and local government Web resources and services.
Facebook
NWS on Facebook

Important Change Regarding the AAWU Web Presence

 

Over the last several months, the AAWU has been working to navigate its webpages to a nationally supported server. Security, as well as other needs, have necessitated the change.  We have been given an extension for the site changeover while we diligently work at addressing feedback received. As of July 14, 2017, aawu.arh.noaa.gov will be discontinued. The new AAWU web address is weather.gov/aawu. It is now live and will run in-parallel with the old site until it is discontinued on July 14, 2017. Please continue to send any feedback or questions regarding the new webpages to nws.ar.aawu.webauthors@noaa.gov.  Thank you for your patience during this time of transition.
AAWU Home :: Display TAF Add Bookmark
TAF CYXJ 101840Z 1019/1107 15005KT P6SM SKC
    RMK NXT FCST BY 110100Z=

METAR CYXJ 240200Z 14006KT 60SM FEW140 SCT220 10/04 A2990 RMK AC2CI2 SLP151 DENSITY ALT 2300FT= METAR CYXJ 240300Z 22009G15KT 15SM FEW050 SCT150 BKN220 11/05 A2991 RMK SC2AC1CI2 SLP152 DENSITY ALT 2400FT= METAR CYXJ 240400Z 21007KT 15SM FEW050 SCT140 BKN220 09/04 A2991 RMK SC2AC1CI2 SLP150= METAR CYXJ 240500Z 19007KT 15SM FEW050 FEW140 SCT220 09/04 A2991 RMK SC1AC1CI2 SLP148= METAR CYXJ 240600Z 21008G15KT 15SM FEW140 SCT220 09/04 A2990 RMK AC2CI2 SLP144= METAR CYXJ 240700Z 21008KT 15SM SCT120 BKN210 09/05 A2989 RMK AC4CI2 SLP141= METAR CYXJ 240800Z 21008KT 15SM SCT100 BKN220 09/05 A2989 RMK AC4CI1 SLP138=
 Alaska TAF Map

NOAA's National Weather Service
Alaska Aviation Weather Unit
6930 Sand Lake Road
Anchorage, AK 99502-1845
Disclaimer
Credits
Glossary
Privacy Policy
About Us
Career Opportunities
Contact AAWU Internet Services Site last modified: April, 17th 2012